Huntley, Montana
Current Conditions -  °F | °C
As of 4:53 PM on Monday 24 Nov 2014 (Local Time) from KBIL Reporting Station
Few Clouds Few Clouds  
Wind Chill: 28°   Ceiling: Unl
Heat Index: 37°   Visibility: 10mi
Dew Point: 13°   Wind: 15mph
Humidity: 37%   Direction: 280°W
Pressure: 30.11"   Gusts: NA
Location:  45.9°N, 108.3°W
Report Text: KBIL 242353Z 28013KT 10SM FEW065 FEW140 03/M11 A3011 RMK AO2 SLP216 T00281106 10067 20028 58002 $
Loading
Personal Weather Stations






























Interactive Weather Map New forecast layout! Learn more

10-Day Weather Forecast

Advertisements
Track Severe Weather on mobile